createdAt,value
2019-04-30T00:01:55.871Z,99.90
2019-04-30T00:04:34.589Z,99.90
2019-04-30T00:07:02.222Z,99.90
2019-04-30T00:09:32.796Z,99.90
2019-04-30T00:12:03.294Z,99.90
2019-04-30T00:14:38.615Z,99.90
2019-04-30T00:17:06.331Z,99.90
2019-04-30T00:19:36.970Z,99.90
2019-04-30T00:22:08.774Z,99.90
2019-04-30T00:24:39.875Z,99.90
2019-04-30T00:27:11.266Z,99.90
2019-04-30T00:29:41.671Z,99.90
2019-04-30T00:32:12.190Z,99.90
2019-04-30T00:34:42.603Z,99.90
2019-04-30T00:37:14.265Z,99.90
2019-04-30T00:39:51.142Z,99.90
2019-04-30T00:42:23.975Z,99.90
2019-04-30T00:44:49.685Z,99.90
2019-04-30T00:47:21.413Z,99.90
2019-04-30T00:49:56.319Z,99.90
2019-04-30T00:52:25.283Z,99.90
2019-04-30T00:54:56.249Z,99.90
2019-04-30T00:57:26.674Z,99.90
2019-04-30T00:59:58.170Z,99.90
2019-04-30T01:02:45.542Z,99.90
2019-04-30T01:05:17.936Z,99.90
2019-04-30T01:07:51.688Z,99.90
2019-04-30T01:10:24.738Z,99.90
2019-04-30T01:12:52.327Z,99.90
2019-04-30T01:15:22.597Z,99.90
2019-04-30T01:17:55.135Z,99.90
2019-04-30T01:20:31.395Z,99.90
2019-04-30T01:22:58.763Z,99.90
2019-04-30T01:25:29.591Z,99.90
2019-04-30T01:28:01.580Z,99.90
2019-04-30T01:30:32.030Z,99.90
2019-04-30T01:33:02.351Z,99.90
2019-04-30T01:35:33.796Z,99.90
2019-04-30T01:38:08.476Z,99.90
2019-04-30T01:40:38.387Z,99.90
2019-04-30T01:43:09.807Z,99.90
2019-04-30T01:45:40.473Z,99.90
2019-04-30T01:48:12.665Z,99.90
2019-04-30T01:50:43.364Z,99.90
2019-04-30T01:53:13.667Z,99.90
2019-04-30T01:56:06.096Z,99.90
2019-04-30T01:58:53.371Z,99.90
2019-04-30T02:01:25.066Z,99.90
2019-04-30T02:03:55.384Z,99.90
2019-04-30T02:06:26.190Z,99.90
2019-04-30T02:08:56.501Z,99.90
2019-04-30T02:11:28.753Z,99.90
2019-04-30T02:13:59.173Z,99.90
2019-04-30T02:16:30.210Z,99.90
2019-04-30T02:19:00.790Z,99.90
2019-04-30T02:21:33.485Z,99.90
2019-04-30T02:24:04.213Z,99.90
2019-04-30T02:26:34.600Z,99.90
2019-04-30T02:29:05.077Z,99.90
2019-04-30T02:31:35.661Z,99.90
2019-04-30T02:34:15.715Z,99.90
2019-04-30T02:36:54.742Z,99.90
2019-04-30T02:39:25.433Z,99.90
2019-04-30T02:41:56.627Z,99.90
2019-04-30T02:44:29.334Z,99.90
2019-04-30T02:47:02.168Z,99.90
2019-04-30T02:49:33.545Z,99.90
2019-04-30T02:52:06.024Z,99.90
2019-04-30T02:54:39.601Z,99.90
2019-04-30T02:57:14.399Z,99.90
2019-04-30T03:00:02.358Z,99.90
2019-04-30T03:02:34.458Z,99.90
2019-04-30T03:05:06.398Z,99.90
2019-04-30T03:07:36.706Z,99.90
2019-04-30T03:10:10.027Z,99.90
2019-04-30T03:12:40.985Z,99.90
2019-04-30T03:15:11.329Z,99.90
2019-04-30T03:18:03.754Z,99.90
2019-04-30T03:20:53.205Z,99.90
2019-04-30T03:23:23.526Z,99.90
2019-04-30T03:25:53.878Z,99.90
2019-04-30T03:28:24.205Z,99.90
2019-04-30T03:30:57.910Z,99.90
2019-04-30T03:33:26.976Z,99.90
2019-04-30T03:36:01.847Z,99.90
2019-04-30T03:38:30.136Z,99.90
2019-04-30T03:41:00.702Z,99.90
2019-04-30T03:43:31.030Z,99.90
2019-04-30T03:46:02.702Z,99.90
2019-04-30T03:48:33.520Z,99.90
2019-04-30T03:51:03.927Z,99.90
2019-04-30T03:53:35.409Z,99.90
2019-04-30T03:56:05.877Z,99.90
2019-04-30T03:58:36.293Z,99.90
2019-04-30T04:01:15.696Z,99.90
2019-04-30T04:04:23.242Z,99.90
2019-04-30T04:07:05.639Z,99.90
2019-04-30T04:09:41.464Z,99.90
2019-04-30T04:12:22.177Z,99.90
2019-04-30T04:14:52.532Z,99.90
2019-04-30T04:17:23.245Z,99.90
2019-04-30T04:19:53.817Z,99.90
2019-04-30T04:22:24.560Z,99.90
2019-04-30T04:24:54.795Z,99.90
2019-04-30T04:27:25.392Z,99.90
2019-04-30T04:29:55.706Z,99.90
2019-04-30T04:32:26.135Z,99.90
2019-04-30T04:34:56.469Z,99.90
2019-04-30T04:37:29.461Z,99.90
2019-04-30T04:39:59.517Z,99.90
2019-04-30T04:42:32.999Z,99.90
2019-04-30T04:45:02.003Z,99.90
2019-04-30T04:47:32.288Z,99.90
2019-04-30T04:50:02.728Z,99.90
2019-04-30T04:52:33.065Z,99.90
2019-04-30T04:55:03.315Z,99.90
2019-04-30T04:57:33.666Z,99.90
2019-04-30T05:00:07.419Z,99.90
2019-04-30T05:02:42.964Z,99.90
2019-04-30T05:05:14.002Z,99.90
2019-04-30T05:07:44.398Z,99.90
2019-04-30T05:10:15.073Z,99.90
2019-04-30T05:12:45.349Z,99.90
2019-04-30T05:15:15.683Z,99.90
2019-04-30T05:17:46.337Z,99.90
2019-04-30T05:20:19.289Z,99.90
2019-04-30T05:22:49.860Z,99.90
2019-04-30T05:25:20.197Z,99.90
2019-04-30T05:27:50.474Z,99.90
2019-04-30T05:30:23.100Z,99.90
2019-04-30T05:32:53.340Z,99.90
2019-04-30T05:35:23.750Z,99.90
2019-04-30T05:37:53.990Z,99.90
2019-04-30T05:40:24.503Z,99.90
2019-04-30T05:42:54.856Z,99.90
2019-04-30T05:45:25.204Z,99.90
2019-04-30T05:47:55.668Z,99.90
2019-04-30T05:50:26.019Z,99.90
2019-04-30T05:52:59.097Z,99.90
2019-04-30T05:55:29.459Z,99.90
2019-04-30T05:58:01.455Z,99.90
2019-04-30T06:00:31.889Z,99.90
2019-04-30T06:03:02.610Z,99.90
2019-04-30T06:05:32.877Z,99.90
2019-04-30T06:08:03.678Z,99.90
2019-04-30T06:10:51.820Z,99.90
2019-04-30T06:13:28.631Z,99.90
2019-04-30T06:16:08.792Z,99.90
2019-04-30T06:18:39.276Z,99.90
2019-04-30T06:21:10.433Z,99.90
2019-04-30T06:23:41.263Z,99.90
2019-04-30T06:26:13.232Z,99.90
2019-04-30T06:28:44.934Z,99.90
2019-04-30T06:31:15.228Z,99.90
2019-04-30T06:33:45.874Z,99.90
2019-04-30T06:36:16.358Z,99.90
2019-04-30T06:38:46.562Z,99.90
2019-04-30T06:41:17.145Z,99.90
2019-04-30T06:43:48.935Z,99.90
2019-04-30T06:46:19.403Z,99.90
2019-04-30T06:48:51.374Z,99.90
2019-04-30T06:51:22.049Z,99.90
2019-04-30T06:53:52.945Z,99.90
2019-04-30T06:56:23.712Z,99.90
2019-04-30T06:58:53.896Z,99.90
2019-04-30T07:01:28.875Z,99.90
2019-04-30T07:04:00.940Z,99.90
2019-04-30T07:06:36.729Z,99.90
2019-04-30T07:09:21.152Z,99.90
2019-04-30T07:11:56.861Z,99.90
2019-04-30T07:14:29.169Z,99.90
2019-04-30T07:16:59.554Z,99.90
2019-04-30T07:19:38.123Z,99.90
2019-04-30T07:22:04.239Z,99.90
2019-04-30T07:24:34.706Z,99.90
2019-04-30T07:27:04.931Z,99.90
2019-04-30T07:29:35.410Z,99.90
2019-04-30T07:32:06.190Z,99.90
2019-04-30T07:34:37.154Z,99.90
2019-04-30T07:37:17.196Z,99.90
2019-04-30T07:39:41.601Z,99.90
2019-04-30T07:42:11.973Z,99.90
2019-04-30T07:44:42.425Z,99.90
2019-04-30T07:47:12.885Z,99.90
2019-04-30T07:49:49.721Z,99.90
2019-04-30T07:52:16.358Z,99.90
2019-04-30T07:54:51.578Z,99.90
2019-04-30T07:57:20.610Z,99.90
2019-04-30T07:59:50.930Z,99.90
2019-04-30T08:02:22.387Z,99.90
2019-04-30T08:04:59.852Z,99.90
2019-04-30T08:07:31.383Z,99.90
2019-04-30T08:10:01.679Z,99.90
2019-04-30T08:12:36.327Z,99.90
2019-04-30T08:15:04.235Z,99.90
2019-04-30T08:17:34.980Z,99.90
2019-04-30T08:20:06.225Z,99.90
2019-04-30T08:22:36.941Z,99.90
2019-04-30T08:25:07.338Z,99.90
2019-04-30T08:27:39.275Z,99.90
2019-04-30T08:30:21.451Z,99.90
2019-04-30T08:32:41.865Z,99.90
2019-04-30T08:35:12.229Z,99.90
2019-04-30T08:37:42.896Z,99.90
2019-04-30T08:40:13.409Z,99.90
2019-04-30T08:42:43.883Z,99.90
2019-04-30T08:45:14.823Z,99.90
2019-04-30T08:47:45.323Z,99.90
2019-04-30T08:50:15.943Z,99.90
2019-04-30T08:52:46.600Z,99.90
2019-04-30T08:55:19.344Z,99.90
2019-04-30T08:57:50.026Z,99.90
2019-04-30T09:00:21.349Z,99.90
2019-04-30T09:02:51.633Z,99.90
2019-04-30T09:05:39.915Z,99.90
2019-04-30T09:08:11.627Z,99.90
2019-04-30T09:10:41.935Z,99.90
2019-04-30T09:13:14.591Z,99.90
2019-04-30T09:15:44.889Z,99.90
2019-04-30T09:18:15.408Z,99.90
2019-04-30T09:20:45.656Z,99.90
2019-04-30T09:23:18.578Z,99.90
2019-04-30T09:25:49.670Z,99.90
2019-04-30T09:28:21.400Z,99.90
2019-04-30T09:30:51.707Z,99.90
2019-04-30T09:33:22.092Z,99.90
2019-04-30T09:35:52.395Z,99.90
2019-04-30T09:38:22.704Z,99.90
2019-04-30T09:40:53.015Z,99.90
2019-04-30T09:43:23.311Z,99.90
2019-04-30T09:45:53.604Z,99.90
2019-04-30T09:48:24.157Z,99.90
2019-04-30T09:50:54.672Z,99.90
2019-04-30T09:53:25.084Z,99.90
2019-04-30T09:55:55.470Z,99.90
2019-04-30T09:58:25.747Z,99.90
2019-04-30T10:00:55.907Z,99.90
2019-04-30T10:03:26.429Z,99.90
2019-04-30T10:05:58.941Z,99.90
2019-04-30T10:08:30.701Z,99.90
2019-04-30T10:11:38.178Z,99.90
2019-04-30T10:14:08.745Z,99.90
2019-04-30T10:17:03.983Z,99.90
2019-04-30T10:19:34.290Z,99.90
2019-04-30T10:22:04.846Z,99.90
2019-04-30T10:24:35.435Z,99.90
2019-04-30T10:27:10.755Z,99.90
2019-04-30T10:29:39.507Z,99.90
2019-04-30T10:32:11.312Z,99.90
2019-04-30T10:34:41.655Z,99.90
2019-04-30T10:37:13.290Z,99.90
2019-04-30T10:39:43.543Z,99.90
2019-04-30T10:42:13.933Z,99.90
2019-04-30T10:44:44.180Z,99.90
2019-04-30T10:47:14.554Z,99.90
2019-04-30T10:49:44.830Z,99.90
2019-04-30T10:52:15.125Z,99.90
2019-04-30T10:54:45.418Z,99.90
2019-04-30T10:57:16.082Z,99.30
2019-04-30T10:59:46.362Z,99.90
2019-04-30T11:02:16.602Z,99.10
2019-04-30T11:04:46.778Z,99.90
2019-04-30T11:07:18.618Z,97.90
2019-04-30T11:09:49.408Z,98.10
2019-04-30T11:12:20.032Z,99.90
2019-04-30T11:14:50.327Z,99.90
2019-04-30T11:17:21.011Z,99.90
2019-04-30T11:19:51.837Z,99.90
2019-04-30T11:22:22.478Z,98.60
2019-04-30T11:25:01.636Z,99.90
2019-04-30T11:27:25.128Z,98.90
2019-04-30T11:30:03.211Z,98.50
2019-04-30T11:32:29.610Z,96.40
2019-04-30T11:35:02.633Z,98.20
2019-04-30T11:37:35.005Z,97.40
2019-04-30T11:40:06.366Z,98.40
2019-04-30T11:42:38.422Z,98.30
2019-04-30T11:45:10.144Z,99.90
2019-04-30T11:47:40.491Z,97.10
2019-04-30T11:50:13.732Z,99.50
2019-04-30T11:52:44.494Z,97.60
2019-04-30T11:55:15.311Z,97.30
2019-04-30T11:57:45.765Z,96.60
2019-04-30T12:00:23.607Z,96.90
2019-04-30T12:02:54.350Z,98.30
2019-04-30T12:05:24.612Z,98.30
2019-04-30T12:08:10.673Z,97.40
2019-04-30T12:11:00.179Z,96.50
2019-04-30T12:13:32.089Z,96.20
2019-04-30T12:16:02.635Z,97.00
2019-04-30T12:18:33.157Z,95.10
2019-04-30T12:21:03.455Z,95.00
2019-04-30T12:23:34.180Z,95.60
2019-04-30T12:26:04.585Z,97.00
2019-04-30T12:28:34.893Z,94.60
2019-04-30T12:31:06.115Z,94.00
2019-04-30T12:33:38.859Z,94.30
2019-04-30T12:36:09.353Z,94.00
2019-04-30T12:38:40.451Z,94.40
2019-04-30T12:41:13.097Z,93.30
2019-04-30T12:43:43.429Z,96.40
2019-04-30T12:46:13.936Z,94.40
2019-04-30T12:49:05.935Z,97.30
2019-04-30T12:51:55.227Z,96.30
2019-04-30T12:54:31.607Z,95.90
2019-04-30T12:57:29.316Z,95.60
2019-04-30T13:00:00.451Z,96.00
2019-04-30T13:02:32.597Z,96.20
2019-04-30T13:05:02.923Z,95.40
2019-04-30T13:07:33.670Z,94.40
2019-04-30T13:10:05.442Z,94.70
2019-04-30T13:12:36.823Z,95.00
2019-04-30T13:15:10.176Z,94.80
2019-04-30T13:17:40.710Z,92.50
2019-04-30T13:20:18.671Z,96.70
2019-04-30T13:22:44.356Z,92.50
2019-04-30T13:25:27.528Z,92.50
2019-04-30T13:27:50.542Z,92.70
2019-04-30T13:30:25.408Z,93.60
2019-04-30T13:33:23.602Z,94.40
2019-04-30T13:35:54.114Z,93.00
2019-04-30T13:38:44.936Z,93.70
2019-04-30T13:41:14.881Z,91.70
2019-04-30T13:44:02.324Z,92.90
2019-04-30T13:46:33.710Z,93.40
2019-04-30T13:49:06.331Z,91.10
2019-04-30T13:51:36.616Z,92.20
2019-04-30T13:54:09.834Z,91.00
2019-04-30T13:56:44.230Z,93.90
2019-04-30T13:59:14.895Z,91.90
2019-04-30T14:01:48.791Z,91.00
2019-04-30T14:04:42.997Z,91.80
2019-04-30T14:07:32.300Z,89.70
2019-04-30T14:10:03.578Z,92.00
2019-04-30T14:12:35.978Z,92.40
2019-04-30T14:15:09.402Z,91.90
2019-04-30T14:17:40.174Z,91.40
2019-04-30T14:20:11.364Z,92.20
2019-04-30T14:22:43.116Z,91.70
2019-04-30T14:25:14.300Z,91.20
2019-04-30T14:27:51.842Z,93.50
2019-04-30T14:30:19.105Z,91.90
2019-04-30T14:32:50.857Z,92.70
2019-04-30T14:35:21.134Z,91.80
2019-04-30T14:37:51.470Z,91.60
2019-04-30T14:40:22.276Z,91.30
2019-04-30T14:43:04.260Z,90.80
2019-04-30T14:45:43.078Z,90.10
2019-04-30T14:48:22.993Z,91.00
2019-04-30T14:50:52.196Z,90.50
2019-04-30T14:53:41.446Z,90.90
2019-04-30T14:56:30.682Z,89.20
2019-04-30T14:59:21.444Z,88.70
2019-04-30T15:01:59.438Z,90.60
2019-04-30T15:04:29.644Z,89.50
2019-04-30T15:06:59.882Z,90.50
2019-04-30T15:09:30.669Z,90.90
2019-04-30T15:12:01.084Z,91.60
2019-04-30T15:14:32.322Z,88.80
2019-04-30T15:17:02.716Z,85.40
2019-04-30T15:19:36.146Z,87.80
2019-04-30T15:22:06.405Z,84.70
2019-04-30T15:24:39.291Z,85.90
2019-04-30T15:27:09.954Z,85.60
2019-04-30T15:29:40.224Z,87.40
2019-04-30T15:32:10.778Z,86.10
2019-04-30T15:34:42.459Z,87.10
2019-04-30T15:37:19.079Z,86.40
2019-04-30T15:39:46.644Z,87.40
2019-04-30T15:42:18.322Z,89.00
2019-04-30T15:44:49.763Z,88.10
2019-04-30T15:47:21.808Z,90.20
2019-04-30T15:49:52.193Z,89.70
2019-04-30T15:52:22.492Z,89.00
2019-04-30T15:54:53.115Z,90.20
2019-04-30T15:57:23.471Z,90.40
2019-04-30T15:59:54.514Z,90.60
2019-04-30T16:02:34.811Z,90.50
2019-04-30T16:05:36.737Z,90.10
2019-04-30T16:08:29.184Z,91.10
2019-04-30T16:11:30.689Z,90.80
2019-04-30T16:14:09.107Z,90.60
2019-04-30T16:16:41.301Z,90.40
2019-04-30T16:19:12.277Z,90.20
2019-04-30T16:21:42.637Z,91.60
2019-04-30T16:24:13.115Z,90.90
2019-04-30T16:26:49.423Z,91.40
2019-04-30T16:29:16.241Z,90.80
2019-04-30T16:31:46.647Z,90.30
2019-04-30T16:34:17.321Z,90.70
2019-04-30T16:36:49.224Z,90.20
2019-04-30T16:39:21.427Z,88.40
2019-04-30T16:41:51.704Z,91.00
2019-04-30T16:44:22.230Z,90.70
2019-04-30T16:46:53.341Z,90.80
2019-04-30T16:49:23.599Z,91.20
2019-04-30T16:51:54.147Z,90.70
2019-04-30T16:54:25.263Z,91.40
2019-04-30T16:57:05.943Z,91.80
2019-04-30T16:59:35.173Z,92.00
2019-04-30T17:02:05.899Z,91.70
2019-04-30T17:04:45.237Z,92.10
2019-04-30T17:07:33.565Z,92.70
2019-04-30T17:10:26.085Z,92.30
2019-04-30T17:13:13.918Z,93.20
2019-04-30T17:15:44.725Z,92.60
2019-04-30T17:18:15.291Z,92.90
2019-04-30T17:20:45.820Z,93.20
2019-04-30T17:23:16.092Z,93.80
2019-04-30T17:25:46.571Z,93.10
2019-04-30T17:28:18.684Z,93.90
2019-04-30T17:30:49.236Z,93.30
2019-04-30T17:33:20.563Z,93.60
2019-04-30T17:35:50.899Z,94.60
2019-04-30T17:38:21.319Z,95.10
2019-04-30T17:40:51.597Z,95.10
2019-04-30T17:43:24.306Z,95.50
2019-04-30T17:45:54.065Z,95.90
2019-04-30T17:48:24.559Z,95.70
2019-04-30T17:50:55.222Z,96.10
2019-04-30T17:53:25.721Z,96.20
2019-04-30T17:55:56.072Z,96.50
2019-04-30T17:58:26.479Z,96.90
2019-04-30T18:00:59.793Z,97.30
2019-04-30T18:03:30.579Z,97.80
2019-04-30T18:06:01.142Z,97.60
2019-04-30T18:08:31.659Z,97.60
2019-04-30T18:11:02.185Z,97.90
2019-04-30T18:13:32.531Z,98.00
2019-04-30T18:16:02.947Z,98.00
2019-04-30T18:18:59.125Z,98.10
2019-04-30T18:21:40.158Z,98.10
2019-04-30T18:24:21.531Z,98.10
2019-04-30T18:27:02.504Z,98.10
2019-04-30T18:29:32.878Z,98.10
2019-04-30T18:32:03.610Z,98.40
2019-04-30T18:34:34.034Z,98.60
2019-04-30T18:37:04.621Z,98.90
2019-04-30T18:39:35.358Z,98.90
2019-04-30T18:42:05.770Z,99.00
2019-04-30T18:44:36.094Z,99.00
2019-04-30T18:47:06.429Z,98.80
2019-04-30T18:49:39.378Z,99.30
2019-04-30T18:52:09.608Z,99.90
2019-04-30T18:54:40.146Z,99.90
2019-04-30T18:57:10.905Z,99.90
2019-04-30T18:59:41.261Z,99.90
2019-04-30T19:02:13.618Z,99.90
2019-04-30T19:04:45.130Z,99.90
2019-04-30T19:07:23.488Z,99.90
2019-04-30T19:10:03.942Z,99.90
2019-04-30T19:12:59.156Z,99.90
2019-04-30T19:16:14.716Z,99.90
2019-04-30T19:18:45.002Z,99.90
2019-04-30T19:21:15.826Z,99.90
2019-04-30T19:23:48.610Z,99.90
2019-04-30T19:26:19.027Z,99.90
2019-04-30T19:28:50.654Z,99.90
2019-04-30T19:31:20.959Z,99.90
2019-04-30T19:33:51.258Z,99.90
2019-04-30T19:36:33.916Z,99.90
2019-04-30T19:38:56.111Z,99.90
2019-04-30T19:41:28.684Z,99.90
2019-04-30T19:43:58.650Z,99.90
2019-04-30T19:46:30.931Z,99.90
2019-04-30T19:49:01.645Z,99.90
2019-04-30T19:51:32.062Z,99.90
2019-04-30T19:54:02.326Z,99.90
2019-04-30T19:56:33.253Z,99.90
2019-04-30T19:59:05.606Z,99.90
2019-04-30T20:01:36.452Z,99.90
2019-04-30T20:04:09.850Z,99.90
2019-04-30T20:06:40.447Z,99.90
2019-04-30T20:09:11.327Z,99.90
2019-04-30T20:11:45.073Z,99.90
2019-04-30T20:14:15.965Z,99.90
2019-04-30T20:16:46.333Z,99.90
2019-04-30T20:19:16.611Z,99.90
2019-04-30T20:21:51.374Z,99.90
2019-04-30T20:24:21.068Z,99.90
2019-04-30T20:26:58.281Z,99.90
2019-04-30T20:29:23.217Z,99.90
2019-04-30T20:31:53.591Z,99.90
2019-04-30T20:34:23.825Z,99.90
2019-04-30T20:36:54.196Z,99.90
2019-04-30T20:39:42.173Z,99.90
2019-04-30T20:42:12.501Z,99.90
2019-04-30T20:44:42.896Z,99.90
2019-04-30T20:47:13.266Z,99.90
2019-04-30T20:49:43.523Z,99.90
2019-04-30T20:52:13.948Z,99.90
2019-04-30T20:54:44.235Z,99.90
2019-04-30T20:57:14.903Z,99.90
2019-04-30T20:59:45.170Z,99.90
2019-04-30T21:02:18.568Z,99.90
2019-04-30T21:04:47.746Z,99.90
2019-04-30T21:07:19.503Z,99.90
2019-04-30T21:09:50.119Z,99.90
2019-04-30T21:12:21.459Z,99.90
2019-04-30T21:14:51.854Z,99.90
2019-04-30T21:17:22.310Z,99.90
2019-04-30T21:19:52.578Z,99.90
2019-04-30T21:22:23.491Z,99.90
2019-04-30T21:24:53.755Z,99.90
2019-04-30T21:27:24.340Z,99.90
2019-04-30T21:29:54.621Z,99.90
2019-04-30T21:32:48.158Z,99.90
2019-04-30T21:35:36.460Z,99.90
2019-04-30T21:38:09.283Z,99.90
2019-04-30T21:40:39.470Z,99.90
2019-04-30T21:43:10.230Z,99.90
2019-04-30T21:45:40.505Z,99.90
2019-04-30T21:48:10.702Z,99.90
2019-04-30T21:50:41.239Z,99.90
2019-04-30T21:53:11.486Z,99.90
2019-04-30T21:55:41.688Z,99.90
2019-04-30T21:58:11.942Z,99.90
2019-04-30T22:01:00.456Z,99.90
2019-04-30T22:03:32.322Z,99.90
2019-04-30T22:06:02.798Z,99.90
2019-04-30T22:08:33.088Z,99.90
2019-04-30T22:11:03.616Z,99.90
2019-04-30T22:13:33.934Z,99.90
2019-04-30T22:16:04.570Z,99.90
2019-04-30T22:18:34.832Z,99.90
2019-04-30T22:21:05.231Z,99.90
2019-04-30T22:23:36.499Z,99.90
2019-04-30T22:26:06.894Z,99.90
2019-04-30T22:28:39.135Z,99.90
2019-04-30T22:31:09.146Z,99.90
2019-04-30T22:33:39.731Z,99.90
2019-04-30T22:36:29.141Z,99.90
2019-04-30T22:39:19.844Z,99.90
2019-04-30T22:41:49.676Z,99.90
2019-04-30T22:44:20.667Z,99.90
2019-04-30T22:46:50.914Z,99.90
2019-04-30T22:49:21.746Z,99.90
2019-04-30T22:51:52.103Z,99.90
2019-04-30T22:54:22.533Z,99.90
2019-04-30T22:56:52.791Z,99.90
2019-04-30T22:59:23.091Z,99.90
2019-04-30T23:02:18.680Z,99.90
2019-04-30T23:04:49.014Z,99.90
2019-04-30T23:07:19.821Z,99.90
2019-04-30T23:09:50.121Z,99.90
2019-04-30T23:12:20.509Z,99.90
2019-04-30T23:14:50.810Z,99.90
2019-04-30T23:17:21.206Z,99.90
2019-04-30T23:19:51.624Z,99.90
2019-04-30T23:22:22.081Z,99.90
2019-04-30T23:24:52.349Z,99.90
2019-04-30T23:27:22.712Z,99.90
2019-04-30T23:30:02.814Z,99.90
2019-04-30T23:32:24.886Z,99.90
2019-04-30T23:34:55.446Z,99.90
2019-04-30T23:37:25.743Z,99.90
2019-04-30T23:39:56.298Z,99.90
2019-04-30T23:42:26.599Z,99.90
2019-04-30T23:44:56.944Z,99.90
2019-04-30T23:47:27.308Z,99.90
2019-04-30T23:49:57.659Z,99.90
2019-04-30T23:52:27.929Z,99.90
2019-04-30T23:54:58.301Z,99.90
2019-04-30T23:57:28.558Z,99.90
2019-04-30T23:59:58.993Z,99.90
